createdAt,value
2019-04-01T00:00:47.328Z,100851.00
2019-04-01T00:03:18.614Z,100854.51
2019-04-01T00:05:50.335Z,100858.02
2019-04-01T00:08:21.451Z,100861.11
2019-04-01T00:10:52.852Z,100860.03
2019-04-01T00:13:24.213Z,100856.75
2019-04-01T00:15:55.532Z,100853.28
2019-04-01T00:18:26.881Z,100842.35
2019-04-01T00:20:58.606Z,100839.14
2019-04-01T00:23:31.047Z,100843.53
2019-04-01T00:26:02.109Z,100845.97
2019-04-01T00:28:34.195Z,100841.50
2019-04-01T00:31:05.466Z,100844.86
2019-04-01T00:33:36.820Z,100837.36
2019-04-01T00:36:08.060Z,100833.00
2019-04-01T00:38:39.494Z,100826.09
2019-04-01T00:41:10.735Z,100832.22
2019-04-01T00:43:43.683Z,100832.73
2019-04-01T00:46:16.607Z,100825.02
2019-04-01T00:48:50.905Z,100818.66
2019-04-01T00:51:23.280Z,100821.54
2019-04-01T00:53:54.895Z,100823.13
2019-04-01T00:56:26.340Z,100821.66
2019-04-01T00:58:57.443Z,100822.80
2019-04-01T01:01:28.691Z,100812.64
2019-04-01T01:04:00.082Z,100811.97
2019-04-01T01:06:31.497Z,100814.80
2019-04-01T01:09:02.883Z,100808.19
2019-04-01T01:11:35.407Z,100797.47
2019-04-01T01:14:06.648Z,100801.23
2019-04-01T01:16:38.010Z,100802.61
2019-04-01T01:19:09.414Z,100799.59
2019-04-01T01:21:40.784Z,100798.59
2019-04-01T01:24:12.107Z,100786.52
2019-04-01T01:26:43.263Z,100788.03
2019-04-01T01:29:14.595Z,100790.98
2019-04-01T01:31:46.015Z,100780.56
2019-04-01T01:34:17.303Z,100784.18
2019-04-01T01:36:48.564Z,100781.67
2019-04-01T01:39:19.887Z,100778.72
2019-04-01T01:41:51.430Z,100783.44
2019-04-01T01:44:22.799Z,100785.59
2019-04-01T01:46:55.084Z,100792.58
2019-04-01T01:49:26.233Z,100795.67
2019-04-01T01:52:04.352Z,100794.02
2019-04-01T01:54:35.908Z,100798.41
2019-04-01T01:57:07.235Z,100792.77
2019-04-01T01:59:38.575Z,100795.06
2019-04-01T02:02:09.837Z,100790.42
2019-04-01T02:04:41.068Z,100788.98
2019-04-01T02:07:12.376Z,100795.48
2019-04-01T02:09:43.688Z,100788.72
2019-04-01T02:12:15.123Z,100791.91
2019-04-01T02:14:46.679Z,100797.92
2019-04-01T02:17:18.110Z,100791.97
2019-04-01T02:19:49.667Z,100788.45
2019-04-01T02:22:21.347Z,100793.49
2019-04-01T02:24:52.691Z,100796.01
2019-04-01T02:27:23.997Z,100800.63
2019-04-01T02:29:55.295Z,100798.28
2019-04-01T02:32:26.535Z,100802.19
2019-04-01T02:34:57.908Z,100803.06
2019-04-01T02:37:29.333Z,100800.52
2019-04-01T02:40:00.801Z,100803.20
2019-04-01T02:42:35.848Z,100809.38
2019-04-01T02:45:07.119Z,100809.05
2019-04-01T02:47:38.287Z,100814.73
2019-04-01T02:50:09.697Z,100818.35
2019-04-01T02:52:41.801Z,100821.40
2019-04-01T02:55:13.303Z,100824.81
2019-04-01T02:57:44.637Z,100825.30
2019-04-01T03:00:16.112Z,100818.05
2019-04-01T03:02:47.241Z,100818.78
2019-04-01T03:05:18.599Z,100824.58
2019-04-01T03:07:49.976Z,100821.09
2019-04-01T03:10:21.247Z,100810.95
2019-04-01T03:12:53.666Z,100812.98
2019-04-01T03:15:25.015Z,100819.53
2019-04-01T03:17:56.133Z,100817.70
2019-04-01T03:20:27.538Z,100816.61
2019-04-01T03:22:59.056Z,100814.95
2019-04-01T03:25:30.311Z,100819.27
2019-04-01T03:28:01.658Z,100821.44
2019-04-01T03:30:33.013Z,100827.49
2019-04-01T03:33:04.217Z,100826.65
2019-04-01T03:35:35.698Z,100828.45
2019-04-01T03:38:06.944Z,100837.63
2019-04-01T03:40:38.292Z,100844.48
2019-04-01T03:43:09.655Z,100841.84
2019-04-01T03:45:41.121Z,100837.59
2019-04-01T03:48:12.476Z,100844.83
2019-04-01T03:50:43.793Z,100840.44
2019-04-01T03:53:15.813Z,100843.00
2019-04-01T03:55:47.345Z,100843.12
2019-04-01T03:58:18.784Z,100843.92
2019-04-01T04:00:50.324Z,100844.27
2019-04-01T04:03:21.635Z,100844.75
2019-04-01T04:05:53.119Z,100850.90
2019-04-01T04:08:24.681Z,100849.91
2019-04-01T04:10:55.781Z,100852.31
2019-04-01T04:13:26.983Z,100853.73
2019-04-01T04:15:58.606Z,100850.45
2019-04-01T04:18:29.959Z,100849.09
2019-04-01T04:21:01.308Z,100853.06
2019-04-01T04:23:32.636Z,100857.16
2019-04-01T04:26:04.021Z,100858.57
2019-04-01T04:28:35.377Z,100858.46
2019-04-01T04:31:06.516Z,100860.13
2019-04-01T04:33:37.758Z,100862.09
2019-04-01T04:36:09.114Z,100857.58
2019-04-01T04:38:40.411Z,100854.98
2019-04-01T04:41:11.804Z,100854.25
2019-04-01T04:43:42.928Z,100854.66
2019-04-01T04:46:14.229Z,100852.70
2019-04-01T04:48:45.937Z,100855.19
2019-04-01T04:51:18.494Z,100847.84
2019-04-01T04:53:50.748Z,100848.67
2019-04-01T04:56:22.064Z,100849.81
2019-04-01T04:58:53.315Z,100848.66
2019-04-01T05:01:24.653Z,100849.38
2019-04-01T05:03:56.207Z,100846.08
2019-04-01T05:06:29.199Z,100848.56
2019-04-01T05:09:02.065Z,100849.47
2019-04-01T05:11:34.252Z,100854.27
2019-04-01T05:14:05.382Z,100854.66
2019-04-01T05:16:37.919Z,100858.98
2019-04-01T05:19:09.215Z,100859.16
2019-04-01T05:21:41.808Z,100859.52
2019-04-01T05:24:13.248Z,100859.98
2019-04-01T05:26:45.340Z,100860.71
2019-04-01T05:29:16.807Z,100859.44
2019-04-01T05:31:48.530Z,100849.63
2019-04-01T05:34:20.101Z,100850.66
2019-04-01T05:36:51.538Z,100843.82
2019-04-01T05:39:22.980Z,100849.29
2019-04-01T05:41:55.878Z,100854.22
2019-04-01T05:44:27.222Z,100854.54
2019-04-01T05:46:58.673Z,100853.85
2019-04-01T05:49:29.942Z,100853.09
2019-04-01T05:52:03.155Z,100846.91
2019-04-01T05:54:35.837Z,100845.69
2019-04-01T05:57:07.256Z,100836.34
2019-04-01T05:59:38.705Z,100835.14
2019-04-01T06:02:11.248Z,100836.08
2019-04-01T06:04:42.746Z,100833.09
2019-04-01T06:07:14.576Z,100837.39
2019-04-01T06:09:46.137Z,100839.09
2019-04-01T06:12:17.392Z,100846.21
2019-04-01T06:14:49.761Z,100848.89
2019-04-01T06:17:21.251Z,100846.24
2019-04-01T06:19:52.772Z,100842.23
2019-04-01T06:22:24.121Z,100833.94
2019-04-01T06:24:55.160Z,100834.56
2019-04-01T06:27:27.795Z,100844.25
2019-04-01T06:29:59.534Z,100847.20
2019-04-01T06:32:31.971Z,100840.64
2019-04-01T06:35:05.115Z,100840.38
2019-04-01T06:37:37.337Z,100842.83
2019-04-01T06:40:08.799Z,100842.56
2019-04-01T06:42:42.489Z,100853.69
2019-04-01T06:45:13.953Z,100840.46
2019-04-01T06:47:46.952Z,100838.48
2019-04-01T06:50:18.506Z,100846.38
2019-04-01T06:52:50.764Z,100846.06
2019-04-01T06:55:33.592Z,100843.35
2019-04-01T06:58:05.324Z,100843.72
2019-04-01T07:00:36.758Z,100839.68
2019-04-01T07:03:09.845Z,100841.03
2019-04-01T07:05:41.434Z,100832.98
2019-04-01T07:08:12.892Z,100831.30
2019-04-01T07:10:44.140Z,100840.05
2019-04-01T07:13:15.596Z,100836.84
2019-04-01T07:15:46.874Z,100843.37
2019-04-01T07:18:18.126Z,100843.74
2019-04-01T07:20:49.537Z,100842.88
2019-04-01T07:23:22.832Z,100847.86
2019-04-01T07:25:56.021Z,100844.64
2019-04-01T07:28:27.505Z,100856.09
2019-04-01T07:30:58.738Z,100842.89
2019-04-01T07:33:30.143Z,100844.89
2019-04-01T07:36:01.588Z,100842.29
2019-04-01T07:38:33.320Z,100840.74
2019-04-01T07:41:05.364Z,100827.59
2019-04-01T07:43:36.746Z,100824.39
2019-04-01T07:46:08.377Z,100824.95
2019-04-01T07:48:41.651Z,100820.02
2019-04-01T07:51:12.828Z,100821.93
2019-04-01T07:53:51.378Z,100818.44
2019-04-01T07:56:24.734Z,100821.53
2019-04-01T07:58:56.526Z,100815.05
2019-04-01T08:01:27.697Z,100815.94
2019-04-01T08:03:58.969Z,100819.03
2019-04-01T08:06:30.958Z,100808.72
2019-04-01T08:09:02.226Z,100810.00
2019-04-01T08:11:34.748Z,100804.29
2019-04-01T08:14:06.282Z,100798.34
2019-04-01T08:16:38.749Z,100801.16
2019-04-01T08:19:10.354Z,100799.44
2019-04-01T08:21:46.240Z,100797.16
2019-04-01T08:24:19.018Z,100795.09
2019-04-01T08:26:51.369Z,100794.54
2019-04-01T08:29:29.970Z,100787.64
2019-04-01T08:31:57.236Z,100790.09
2019-04-01T08:34:29.781Z,100779.39
2019-04-01T08:37:01.426Z,100780.17
2019-04-01T08:39:32.664Z,100772.36
2019-04-01T08:42:04.062Z,100767.38
2019-04-01T08:44:35.519Z,100771.42
2019-04-01T08:47:10.143Z,100771.30
2019-04-01T08:49:42.654Z,100764.73
2019-04-01T08:52:14.281Z,100758.36
2019-04-01T08:54:45.615Z,100756.70
2019-04-01T08:57:17.973Z,100760.48
2019-04-01T08:59:50.395Z,100758.36
2019-04-01T09:02:23.089Z,100761.47
2019-04-01T09:04:55.385Z,100765.72
2019-04-01T09:07:27.913Z,100761.93
2019-04-01T09:09:59.345Z,100758.58
2019-04-01T09:12:30.600Z,100755.84
2019-04-01T09:15:02.315Z,100756.48
2019-04-01T09:17:34.578Z,100754.05
2019-04-01T09:20:07.315Z,100745.53
2019-04-01T09:22:38.530Z,100753.11
2019-04-01T09:25:10.352Z,100741.28
2019-04-01T09:27:42.658Z,100734.36
2019-04-01T09:30:14.115Z,100705.19
2019-04-01T09:32:45.789Z,100732.63
2019-04-01T09:35:17.202Z,100736.66
2019-04-01T09:37:49.468Z,100724.25
2019-04-01T09:40:20.764Z,100720.59
2019-04-01T09:42:52.131Z,100713.72
2019-04-01T09:45:25.142Z,100717.46
2019-04-01T09:47:56.447Z,100710.76
2019-04-01T09:50:27.665Z,100706.62
2019-04-01T09:52:58.850Z,100710.66
2019-04-01T09:55:31.133Z,100706.20
2019-04-01T09:58:05.681Z,100697.77
2019-04-01T10:00:37.723Z,100699.89
2019-04-01T10:03:09.021Z,100698.78
2019-04-01T10:05:41.222Z,100702.34
2019-04-01T10:08:17.913Z,100704.94
2019-04-01T10:10:49.378Z,100701.45
2019-04-01T10:13:20.851Z,100704.51
2019-04-01T10:15:52.365Z,100705.48
2019-04-01T10:18:25.894Z,100700.81
2019-04-01T10:20:57.309Z,100697.61
2019-04-01T10:23:28.469Z,100695.23
2019-04-01T10:25:59.868Z,100689.41
2019-04-01T10:28:32.376Z,100683.74
2019-04-01T10:31:03.944Z,100676.34
2019-04-01T10:33:36.885Z,100673.19
2019-04-01T10:36:09.284Z,100673.34
2019-04-01T10:38:40.658Z,100674.33
2019-04-01T10:41:11.878Z,100668.92
2019-04-01T10:43:44.279Z,100658.44
2019-04-01T10:46:18.508Z,100660.72
2019-04-01T10:48:51.822Z,100667.16
2019-04-01T10:51:23.296Z,100656.49
2019-04-01T10:53:54.928Z,100646.48
2019-04-01T10:56:28.434Z,100646.66
2019-04-01T10:59:00.666Z,100646.59
2019-04-01T11:01:33.286Z,100641.03
2019-04-01T11:04:10.729Z,100655.80
2019-04-01T11:06:43.162Z,100654.16
2019-04-01T11:09:15.730Z,100649.48
2019-04-01T11:11:47.293Z,100647.91
2019-04-01T11:14:20.721Z,100642.38
2019-04-01T11:16:55.490Z,100634.50
2019-04-01T11:19:26.745Z,100642.98
2019-04-01T11:21:58.160Z,100645.87
2019-04-01T11:24:29.527Z,100648.23
2019-04-01T11:27:02.751Z,100651.97
2019-04-01T11:29:34.054Z,100642.15
2019-04-01T11:32:05.314Z,100639.34
2019-04-01T11:34:36.760Z,100637.81
2019-04-01T11:37:08.499Z,100629.97
2019-04-01T11:39:40.101Z,100633.09
2019-04-01T11:42:12.204Z,100623.42
2019-04-01T11:44:45.286Z,100633.79
2019-04-01T11:47:20.379Z,100628.80
2019-04-01T11:49:51.094Z,100629.09
2019-04-01T11:52:25.403Z,100622.53
2019-04-01T11:54:58.634Z,100602.11
2019-04-01T11:57:31.509Z,100635.94
2019-04-01T12:00:05.218Z,100623.81
2019-04-01T12:02:36.447Z,100625.95
2019-04-01T12:05:09.563Z,100625.29
2019-04-01T12:07:40.793Z,100620.95
2019-04-01T12:10:14.570Z,100620.79
2019-04-01T12:12:47.219Z,100611.00
2019-04-01T12:15:19.640Z,100613.83
2019-04-01T12:17:50.982Z,100613.81
2019-04-01T12:20:23.989Z,100615.77
2019-04-01T12:22:56.785Z,100618.77
2019-04-01T12:25:28.086Z,100614.42
2019-04-01T12:27:59.722Z,100615.85
2019-04-01T12:30:33.793Z,100598.78
2019-04-01T12:33:06.456Z,100590.23
2019-04-01T12:35:38.736Z,100596.11
2019-04-01T12:38:11.372Z,100608.70
2019-04-01T12:40:42.815Z,100613.30
2019-04-01T12:43:15.367Z,100614.34
2019-04-01T12:45:52.183Z,100606.75
2019-04-01T12:48:26.969Z,100606.00
2019-04-01T12:50:58.337Z,100610.41
2019-04-01T12:53:30.067Z,100606.25
2019-04-01T12:56:02.870Z,100598.50
2019-04-01T12:58:35.011Z,100593.77
2019-04-01T13:01:07.684Z,100594.67
2019-04-01T13:03:40.786Z,100605.31
2019-04-01T13:06:13.936Z,100600.00
2019-04-01T13:08:46.694Z,100604.38
2019-04-01T13:11:19.412Z,100596.08
2019-04-01T13:13:56.423Z,100602.59
2019-04-01T13:16:27.899Z,100596.12
2019-04-01T13:19:00.683Z,100597.80
2019-04-01T13:21:34.639Z,100598.33
2019-04-01T13:24:07.606Z,100606.65
2019-04-01T13:26:41.627Z,100606.39
2019-04-01T13:29:13.317Z,100605.00
2019-04-01T13:31:45.264Z,100602.84
2019-04-01T13:34:22.840Z,100600.31
2019-04-01T13:36:54.382Z,100599.01
2019-04-01T13:39:26.039Z,100604.28
2019-04-01T13:41:59.792Z,100594.41
2019-04-01T13:44:37.218Z,100591.31
2019-04-01T13:47:09.063Z,100608.14
2019-04-01T13:49:40.152Z,100596.64
2019-04-01T13:52:11.669Z,100597.22
2019-04-01T13:54:44.637Z,100602.11
2019-04-01T13:57:19.457Z,100597.23
2019-04-01T13:59:51.790Z,100592.14
2019-04-01T14:02:24.644Z,100600.92
2019-04-01T14:05:01.407Z,100593.39
2019-04-01T14:07:35.755Z,100610.39
2019-04-01T14:10:08.207Z,100611.98
2019-04-01T14:12:42.471Z,100602.98
2019-04-01T14:15:16.736Z,100592.27
2019-04-01T14:17:48.005Z,100613.83
2019-04-01T14:20:20.583Z,100612.84
2019-04-01T14:22:53.582Z,100609.66
2019-04-01T14:25:25.497Z,100609.03
2019-04-01T14:27:58.308Z,100611.48
2019-04-01T14:30:36.257Z,100609.28
2019-04-01T14:33:13.093Z,100609.14
2019-04-01T14:35:45.308Z,100606.84
2019-04-01T14:38:16.560Z,100606.95
2019-04-01T14:40:49.284Z,100609.64
2019-04-01T14:43:20.530Z,100614.89
2019-04-01T14:45:54.725Z,100615.84
2019-04-01T14:48:25.911Z,100615.59
2019-04-01T14:51:00.627Z,100616.77
2019-04-01T14:53:33.854Z,100614.87
2019-04-01T14:56:06.007Z,100621.41
2019-04-01T14:58:39.461Z,100627.30
2019-04-01T15:01:16.696Z,100626.34
2019-04-01T15:03:48.126Z,100628.38
2019-04-01T15:06:19.546Z,100633.12
2019-04-01T15:08:51.537Z,100633.52
2019-04-01T15:11:27.559Z,100642.14
2019-04-01T15:14:00.627Z,100639.14
2019-04-01T15:16:32.880Z,100647.83
2019-04-01T15:19:06.165Z,100650.05
2019-04-01T15:21:37.381Z,100650.34
2019-04-01T15:24:09.183Z,100658.13
2019-04-01T15:26:42.046Z,100661.41
2019-04-01T15:29:14.891Z,100660.54
2019-04-01T15:31:47.367Z,100667.41
2019-04-01T15:34:20.348Z,100680.23
2019-04-01T15:36:52.238Z,100686.16
2019-04-01T15:39:23.631Z,100680.27
2019-04-01T15:41:57.472Z,100686.75
2019-04-01T15:44:29.360Z,100687.69
2019-04-01T15:47:04.431Z,100682.15
2019-04-01T15:49:35.632Z,100697.08
2019-04-01T15:52:07.375Z,100692.98
2019-04-01T15:54:39.718Z,100705.34
2019-04-01T15:57:15.092Z,100711.17
2019-04-01T15:59:49.237Z,100714.27
2019-04-01T16:02:24.545Z,100715.21
2019-04-01T16:04:56.676Z,100726.83
2019-04-01T16:07:28.982Z,100726.25
2019-04-01T16:10:02.666Z,100733.70
2019-04-01T16:12:34.036Z,100738.97
2019-04-01T16:15:09.069Z,100741.36
2019-04-01T16:17:40.145Z,100747.12
2019-04-01T16:20:12.752Z,100746.47
2019-04-01T16:22:44.609Z,100752.69
2019-04-01T16:25:15.718Z,100761.42
2019-04-01T16:27:46.913Z,100768.66
2019-04-01T16:30:18.035Z,100777.58
2019-04-01T16:32:51.392Z,100790.99
2019-04-01T16:35:24.797Z,100795.03
2019-04-01T16:37:59.361Z,100804.77
2019-04-01T16:40:30.367Z,100804.23
2019-04-01T16:43:02.110Z,100803.73
2019-04-01T16:45:35.552Z,100804.37
2019-04-01T16:48:08.483Z,100815.61
2019-04-01T16:50:46.057Z,100830.00
2019-04-01T16:53:17.454Z,100834.85
2019-04-01T16:55:48.772Z,100831.62
2019-04-01T16:58:21.919Z,100839.77
2019-04-01T17:00:54.806Z,100839.73
2019-04-01T17:03:26.402Z,100857.11
2019-04-01T17:05:57.637Z,100863.99
2019-04-01T17:08:29.771Z,100866.95
2019-04-01T17:11:02.796Z,100872.14
2019-04-01T17:13:34.171Z,100864.16
2019-04-01T17:16:06.019Z,100888.96
2019-04-01T17:18:37.647Z,100888.43
2019-04-01T17:21:09.852Z,100893.43
2019-04-01T17:23:42.056Z,100897.40
2019-04-01T17:26:14.386Z,100890.60
2019-04-01T17:28:45.727Z,100905.42
2019-04-01T17:31:17.945Z,100914.75
2019-04-01T17:33:49.421Z,100919.88
2019-04-01T17:36:20.648Z,100922.79
2019-04-01T17:38:53.735Z,100923.09
2019-04-01T17:41:26.931Z,100927.36
2019-04-01T17:43:58.555Z,100931.30
2019-04-01T17:46:29.639Z,100929.17
2019-04-01T17:49:01.314Z,100934.03
2019-04-01T17:51:33.235Z,100935.13
2019-04-01T17:54:04.557Z,100936.61
2019-04-01T17:56:37.451Z,100935.19
2019-04-01T17:59:12.595Z,100941.20
2019-04-01T18:01:42.272Z,100945.12
2019-04-01T18:04:13.894Z,100943.72
2019-04-01T18:06:46.536Z,100956.97
2019-04-01T18:09:18.899Z,100959.10
2019-04-01T18:11:52.137Z,100947.10
2019-04-01T18:14:23.541Z,100957.38
2019-04-01T18:16:56.120Z,100962.66
2019-04-01T18:19:27.552Z,100966.30
2019-04-01T18:22:00.168Z,100967.62
2019-04-01T18:24:31.531Z,100970.59
2019-04-01T18:27:02.947Z,100970.70
2019-04-01T18:29:35.071Z,100969.66
2019-04-01T18:32:06.678Z,100971.64
2019-04-01T18:34:39.783Z,100973.23
2019-04-01T18:37:12.041Z,100973.26
2019-04-01T18:39:48.349Z,100977.92
2019-04-01T18:42:17.198Z,100980.81
2019-04-01T18:44:48.804Z,100978.23
2019-04-01T18:47:20.989Z,100981.96
2019-04-01T18:49:52.169Z,100985.78
2019-04-01T18:52:28.942Z,100984.53
2019-04-01T18:55:02.073Z,100993.88
2019-04-01T18:57:33.500Z,100990.56
2019-04-01T19:00:09.960Z,100991.77
2019-04-01T19:02:42.066Z,100986.94
2019-04-01T19:05:13.468Z,100996.77
2019-04-01T19:07:44.868Z,101002.22
2019-04-01T19:10:16.236Z,100998.31
2019-04-01T19:12:49.188Z,100997.05
2019-04-01T19:15:22.715Z,100997.53
2019-04-01T19:17:55.244Z,101000.84
2019-04-01T19:20:30.344Z,101002.78
2019-04-01T19:23:02.583Z,100992.05
2019-04-01T19:25:37.154Z,101005.19
2019-04-01T19:28:10.276Z,101011.07
2019-04-01T19:30:43.167Z,101010.92
2019-04-01T19:33:14.840Z,101008.89
2019-04-01T19:35:49.987Z,101006.70
2019-04-01T19:38:21.630Z,101013.28
2019-04-01T19:40:53.668Z,101000.70
2019-04-01T19:43:27.884Z,101007.12
2019-04-01T19:45:59.605Z,101019.06
2019-04-01T19:48:32.629Z,101013.63
2019-04-01T19:51:04.457Z,101013.53
2019-04-01T19:53:36.632Z,101021.05
2019-04-01T19:56:08.742Z,101021.31
2019-04-01T19:58:41.237Z,101020.89
2019-04-01T20:01:12.393Z,101009.53
2019-04-01T20:03:43.996Z,101013.47
2019-04-01T20:06:15.175Z,101010.07
2019-04-01T20:08:49.533Z,101005.16
2019-04-01T20:11:19.317Z,101001.85
2019-04-01T20:13:51.246Z,101007.02
2019-04-01T20:16:22.507Z,101008.17
2019-04-01T20:18:53.844Z,101017.40
2019-04-01T20:21:25.157Z,101018.89
2019-04-01T20:23:59.536Z,101031.25
2019-04-01T20:26:31.779Z,101026.77
2019-04-01T20:29:02.935Z,101032.84
2019-04-01T20:31:34.353Z,101031.62
2019-04-01T20:34:05.388Z,101036.87
2019-04-01T20:36:36.375Z,101039.88
2019-04-01T20:39:08.347Z,101049.88
2019-04-01T20:41:40.514Z,101045.69
2019-04-01T20:44:12.412Z,101046.76
2019-04-01T20:46:45.618Z,101044.86
2019-04-01T20:49:17.217Z,101038.72
2019-04-01T20:51:48.362Z,101036.05
2019-04-01T20:54:19.528Z,101051.08
2019-04-01T20:56:50.784Z,101048.55
2019-04-01T20:59:22.188Z,101052.06
2019-04-01T21:01:53.545Z,101057.30
2019-04-01T21:04:24.694Z,101052.83
2019-04-01T21:06:55.980Z,101061.09
2019-04-01T21:09:27.113Z,101060.61
2019-04-01T21:11:58.339Z,101062.66
2019-04-01T21:14:29.768Z,101066.66
2019-04-01T21:17:02.190Z,101061.61
2019-04-01T21:19:33.533Z,101067.65
2019-04-01T21:22:04.869Z,101064.77
2019-04-01T21:24:36.005Z,101067.44
2019-04-01T21:27:08.100Z,101059.58
2019-04-01T21:29:40.074Z,101063.20
2019-04-01T21:32:11.407Z,101062.48
2019-04-01T21:34:42.823Z,101075.91
2019-04-01T21:37:13.999Z,101066.50
2019-04-01T21:39:45.135Z,101074.97
2019-04-01T21:42:17.222Z,101065.77
2019-04-01T21:44:48.342Z,101062.39
2019-04-01T21:47:19.996Z,101065.40
2019-04-01T21:49:51.295Z,101078.23
2019-04-01T21:52:22.601Z,101072.44
2019-04-01T21:54:54.233Z,101073.02
2019-04-01T21:57:25.896Z,101071.22
2019-04-01T21:59:57.043Z,101076.06
2019-04-01T22:02:35.710Z,101077.73
2019-04-01T22:05:03.359Z,101075.31
2019-04-01T22:07:38.268Z,101073.50
2019-04-01T22:10:10.119Z,101077.11
2019-04-01T22:12:43.785Z,101069.85
2019-04-01T22:15:18.673Z,101073.59
2019-04-01T22:17:49.907Z,101076.72
2019-04-01T22:20:21.173Z,101081.42
2019-04-01T22:22:52.398Z,101066.56
2019-04-01T22:25:23.507Z,101082.73
2019-04-01T22:27:54.789Z,101086.58
2019-04-01T22:30:25.828Z,101077.64
2019-04-01T22:32:56.988Z,101080.48
2019-04-01T22:35:38.149Z,101086.78
2019-04-01T22:38:03.383Z,101083.98
2019-04-01T22:40:33.999Z,101087.80
2019-04-01T22:43:06.240Z,101087.41
2019-04-01T22:45:37.562Z,101081.75
2019-04-01T22:48:09.066Z,101097.30
2019-04-01T22:50:40.419Z,101093.17
2019-04-01T22:53:11.717Z,101084.11
2019-04-01T22:55:42.902Z,101092.16
2019-04-01T22:58:14.149Z,101081.48
2019-04-01T23:00:47.195Z,101078.80
2019-04-01T23:03:18.826Z,101096.17
2019-04-01T23:05:49.981Z,101094.91
2019-04-01T23:08:21.301Z,101091.19
2019-04-01T23:10:52.379Z,101085.41
2019-04-01T23:13:25.641Z,101055.73
2019-04-01T23:15:56.790Z,101091.41
2019-04-01T23:18:27.867Z,101086.23
2019-04-01T23:20:59.086Z,101098.64
2019-04-01T23:23:30.320Z,101102.84
2019-04-01T23:26:01.969Z,101107.30
2019-04-01T23:28:33.309Z,101101.70
2019-04-01T23:31:04.735Z,101068.17
2019-04-01T23:33:35.934Z,101117.05
2019-04-01T23:36:06.938Z,101122.98
2019-04-01T23:38:37.935Z,101122.61
2019-04-01T23:41:09.102Z,101126.09
2019-04-01T23:43:41.158Z,101123.44
2019-04-01T23:46:12.280Z,101119.23
2019-04-01T23:48:43.529Z,101112.73
2019-04-01T23:51:14.765Z,101109.79
2019-04-01T23:53:46.098Z,101122.94
2019-04-01T23:56:20.105Z,101122.30
2019-04-01T23:58:51.195Z,101115.64
